Terminal Aerodrome Forecast
Issued by NWS Boston, MA

Home | Current Version | Previous Version | Text Only | Print | Product List | Glossary On
Versions: 1 2 3 4 5 6 7 8 9 10 11 12 13 14 15 16 17 18 19 20 21 22 23 24 25 26 27 28 29 30 31 32 33 34 35 36 37 38 39 40 41 42 43 44 45 46 47 48 49 50
000
FTUS41 KBOX 190536
TAFBDL
TAF
KBDL 190536Z 1906/2012 00000KT 6SM -RA BR SCT007 OVC012
     FM190900 19011G19KT 3SM -SHRA OVC015
     FM191100 20012G19KT 4SM +SHRA OVC010
     FM191500 26013G30KT P6SM VCSH BKN035
     FM191700 28014G32KT P6SM SCT060
     FM200000 28010G24KT P6SM FEW250
     FM200300 27010KT P6SM SCT035=

USA.gov is the U.S. government's official web portal to all federal, state and local government web resources and services.